createdAt,value
2022-10-11T00:00:09.537Z,96805.25
2022-10-11T00:02:35.868Z,96815.81
2022-10-11T00:05:02.206Z,96809.50
2022-10-11T00:07:28.547Z,96815.31
2022-10-11T00:09:54.867Z,96806.03
2022-10-11T00:12:21.194Z,96806.69
2022-10-11T00:14:47.521Z,96815.75
2022-10-11T00:17:13.846Z,96807.88
2022-10-11T00:19:40.189Z,96810.41
2022-10-11T00:22:06.519Z,96814.22
2022-10-11T00:24:32.840Z,96814.78
2022-10-11T00:26:59.174Z,96814.97
2022-10-11T00:29:25.521Z,96810.25
2022-10-11T00:31:51.854Z,96818.81
2022-10-11T00:34:18.196Z,96819.13
2022-10-11T00:36:44.534Z,96818.00
2022-10-11T00:39:10.859Z,96816.00
2022-10-11T00:41:37.195Z,96817.13
2022-10-11T00:44:03.526Z,96812.59
2022-10-11T00:46:29.860Z,96822.53
2022-10-11T00:48:56.206Z,96825.56
2022-10-11T00:51:22.548Z,96820.34
2022-10-11T00:53:48.878Z,96825.72
2022-10-11T00:56:15.209Z,96816.78
2022-10-11T00:58:41.544Z,96821.47
2022-10-11T01:01:07.901Z,96813.59
2022-10-11T01:03:34.253Z,96814.13
2022-10-11T01:06:00.594Z,96813.09
2022-10-11T01:08:26.920Z,96809.78
2022-10-11T01:10:53.252Z,96813.47
2022-10-11T01:13:19.590Z,96814.78
2022-10-11T01:15:45.919Z,96818.41
2022-10-11T01:18:12.239Z,96819.03
2022-10-11T01:20:38.572Z,96820.59
2022-10-11T01:23:04.902Z,96825.91
2022-10-11T01:25:31.224Z,96824.03
2022-10-11T01:27:57.568Z,96814.16
2022-10-11T01:30:23.898Z,96819.50
2022-10-11T01:32:50.229Z,96812.63
2022-10-11T01:35:16.565Z,96821.50
2022-10-11T01:37:42.898Z,96818.91
2022-10-11T01:40:09.227Z,96813.06
2022-10-11T01:42:35.551Z,96809.44
2022-10-11T01:45:01.884Z,96808.38
2022-10-11T01:47:28.202Z,96803.38
2022-10-11T01:49:54.545Z,96799.16
2022-10-11T01:52:20.887Z,96803.09
2022-10-11T01:55:10.195Z,96802.16
2022-10-11T01:57:33.536Z,96804.22
2022-10-11T01:59:59.872Z,96810.34
2022-10-11T02:02:26.205Z,96801.19
2022-10-11T02:04:52.532Z,96802.34
2022-10-11T02:07:18.878Z,96804.66
2022-10-11T02:09:45.211Z,96800.97
2022-10-11T02:12:11.538Z,96794.31
2022-10-11T02:14:37.866Z,96793.50
2022-10-11T02:17:04.207Z,96788.69
2022-10-11T02:19:30.541Z,96793.94
2022-10-11T02:21:56.875Z,96786.81
2022-10-11T02:24:23.201Z,96786.66
2022-10-11T02:26:49.536Z,96780.25
2022-10-11T02:29:15.879Z,96789.75
2022-10-11T02:31:42.213Z,96782.63
2022-10-11T02:34:08.535Z,96786.56
2022-10-11T02:36:34.866Z,96778.66
2022-10-11T02:39:01.206Z,96787.53
2022-10-11T02:41:27.541Z,96789.66
2022-10-11T02:43:53.880Z,96786.22
2022-10-11T02:46:20.207Z,96793.16
2022-10-11T02:48:46.544Z,96786.00
2022-10-11T02:51:12.872Z,96793.34
2022-10-11T02:53:39.197Z,96785.75
2022-10-11T02:56:05.739Z,96788.09
2022-10-11T02:58:32.339Z,96788.44
2022-10-11T03:00:58.687Z,96795.97
2022-10-11T03:03:25.013Z,96795.00
2022-10-11T03:05:51.346Z,96792.25
2022-10-11T03:08:17.694Z,96796.03
2022-10-11T03:10:44.021Z,96789.72
2022-10-11T03:13:12.831Z,96797.94
2022-10-11T03:15:41.210Z,96795.09
2022-10-11T03:18:07.548Z,96793.00
2022-10-11T03:20:33.892Z,96788.28
2022-10-11T03:23:00.230Z,96789.88
2022-10-11T03:25:26.559Z,96787.16
2022-10-11T03:27:52.889Z,96793.47
2022-10-11T03:30:19.212Z,96796.63
2022-10-11T03:32:45.551Z,96795.06
2022-10-11T03:35:11.889Z,96796.72
2022-10-11T03:37:38.229Z,96794.53
2022-10-11T03:40:04.557Z,96797.75
2022-10-11T03:42:30.909Z,96799.31
2022-10-11T03:44:57.241Z,96797.22
2022-10-11T03:47:23.574Z,96799.06
2022-10-11T03:49:49.911Z,96808.31
2022-10-11T03:52:16.240Z,96795.78
2022-10-11T03:54:42.568Z,96805.56
2022-10-11T03:57:08.915Z,96810.47
2022-10-11T03:59:35.249Z,96813.00
2022-10-11T04:02:01.624Z,96798.59
2022-10-11T04:04:28.018Z,96803.06
2022-10-11T04:06:54.344Z,96802.78
2022-10-11T04:09:20.687Z,96803.91
2022-10-11T04:11:47.014Z,96806.31
2022-10-11T04:14:13.340Z,96810.03
2022-10-11T04:16:39.673Z,96809.38
2022-10-11T04:19:06.009Z,96810.19
2022-10-11T04:21:32.339Z,96808.06
2022-10-11T04:23:58.670Z,96801.53
2022-10-11T04:26:24.998Z,96811.47
2022-10-11T04:28:51.372Z,96808.31
2022-10-11T04:31:17.747Z,96809.44
2022-10-11T04:33:44.091Z,96806.19
2022-10-11T04:36:10.421Z,96809.59
2022-10-11T04:38:36.750Z,96811.72
2022-10-11T04:41:03.082Z,96817.78
2022-10-11T04:43:29.425Z,96819.84
2022-10-11T04:45:55.760Z,96811.88
2022-10-11T04:48:22.094Z,96815.50
2022-10-11T04:50:48.423Z,96813.88
2022-10-11T04:53:14.757Z,96820.44
2022-10-11T04:55:41.095Z,96821.56
2022-10-11T04:58:07.416Z,96828.06
2022-10-11T05:00:33.744Z,96821.50
2022-10-11T05:03:00.081Z,96819.63
2022-10-11T05:05:26.426Z,96826.25
2022-10-11T05:07:52.758Z,96818.50
2022-10-11T05:10:19.091Z,96822.84
2022-10-11T05:12:45.419Z,96817.88
2022-10-11T05:15:11.754Z,96828.06
2022-10-11T05:17:38.085Z,96818.63
2022-10-11T05:20:04.408Z,96820.28
2022-10-11T05:22:30.734Z,96824.81
2022-10-11T05:24:57.077Z,96824.16
2022-10-11T05:27:23.414Z,96822.97
2022-10-11T05:29:49.799Z,96825.88
2022-10-11T05:32:16.137Z,96816.88
2022-10-11T05:34:43.320Z,96825.94
2022-10-11T05:37:09.645Z,96830.72
2022-10-11T05:39:35.975Z,96825.94
2022-10-11T05:42:04.566Z,96835.94
2022-10-11T05:44:33.129Z,96826.44
2022-10-11T05:46:59.508Z,96823.19
2022-10-11T05:49:25.849Z,96822.09
2022-10-11T05:51:52.193Z,96819.31
2022-10-11T05:54:18.531Z,96825.81
2022-10-11T05:56:44.877Z,96826.44
2022-10-11T05:59:11.215Z,96826.81
2022-10-11T06:01:37.623Z,96827.38
2022-10-11T06:04:04.027Z,96828.78
2022-10-11T06:06:30.368Z,96825.69
2022-10-11T06:08:56.710Z,96823.59
2022-10-11T06:11:23.046Z,96833.28
2022-10-11T06:13:49.373Z,96836.06
2022-10-11T06:16:15.719Z,96837.91
2022-10-11T06:18:42.053Z,96840.47
2022-10-11T06:21:08.398Z,96851.75
2022-10-11T06:23:34.740Z,96851.72
2022-10-11T06:26:01.078Z,96852.03
2022-10-11T06:28:27.493Z,96863.59
2022-10-11T06:30:53.851Z,96864.16
2022-10-11T06:33:20.172Z,96855.44
2022-10-11T06:35:46.500Z,96865.06
2022-10-11T06:38:12.842Z,96862.38
2022-10-11T06:40:39.181Z,96875.56
2022-10-11T06:43:05.517Z,96868.25
2022-10-11T06:45:31.848Z,96866.97
2022-10-11T06:47:58.215Z,96868.25
2022-10-11T06:50:47.269Z,96876.34
2022-10-11T06:53:10.874Z,96875.72
2022-10-11T06:55:37.217Z,96873.38
2022-10-11T06:58:03.568Z,96879.78
2022-10-11T07:00:29.908Z,96879.63
2022-10-11T07:02:56.245Z,96883.09
2022-10-11T07:05:22.612Z,96887.59
2022-10-11T07:07:48.943Z,96883.59
2022-10-11T07:10:15.277Z,96889.59
2022-10-11T07:12:41.617Z,96897.13
2022-10-11T07:15:07.950Z,96897.13
2022-10-11T07:17:34.284Z,96897.75
2022-10-11T07:20:00.638Z,96891.72
2022-10-11T07:22:27.011Z,96888.50
2022-10-11T07:24:53.403Z,96893.78
2022-10-11T07:27:19.740Z,96895.44
2022-10-11T07:29:46.076Z,96899.44
2022-10-11T07:32:12.431Z,96890.84
2022-10-11T07:34:38.764Z,96893.78
2022-10-11T07:37:05.088Z,96897.28
2022-10-11T07:39:31.425Z,96896.63
2022-10-11T07:41:57.757Z,96900.22
2022-10-11T07:44:24.100Z,96898.94
2022-10-11T07:46:50.443Z,96900.66
2022-10-11T07:49:16.778Z,96906.50
2022-10-11T07:51:43.103Z,96904.53
2022-10-11T07:54:09.441Z,96906.69
2022-10-11T07:56:35.769Z,96906.09
2022-10-11T07:59:02.109Z,96905.84
2022-10-11T08:01:28.600Z,96906.97
2022-10-11T08:03:54.988Z,96913.41
2022-10-11T08:06:21.331Z,96914.22
2022-10-11T08:08:47.673Z,96906.84
2022-10-11T08:11:14.021Z,96915.00
2022-10-11T08:13:40.351Z,96915.69
2022-10-11T08:16:06.871Z,96911.06
2022-10-11T08:18:33.350Z,96914.50
2022-10-11T08:20:59.710Z,96914.63
2022-10-11T08:23:26.045Z,96923.69
2022-10-11T08:25:52.385Z,96912.66
2022-10-11T08:28:19.182Z,96917.38
2022-10-11T08:30:45.612Z,96911.44
2022-10-11T08:33:12.089Z,96919.34
2022-10-11T08:35:38.429Z,96913.81
2022-10-11T08:38:04.767Z,96914.88
2022-10-11T08:40:35.114Z,96914.16
2022-10-11T08:43:01.781Z,96917.78
2022-10-11T08:45:28.112Z,96912.75
2022-10-11T08:47:54.455Z,96911.59
2022-10-11T08:50:20.800Z,96912.22
2022-10-11T08:52:47.148Z,96918.16
2022-10-11T08:55:13.488Z,96910.41
2022-10-11T08:57:39.825Z,96913.09
2022-10-11T09:00:06.165Z,96914.13
2022-10-11T09:02:55.761Z,96915.19
2022-10-11T09:05:18.913Z,96912.81
2022-10-11T09:07:45.248Z,96917.38
2022-10-11T09:10:11.580Z,96917.91
2022-10-11T09:12:40.845Z,96909.13
2022-10-11T09:15:07.460Z,96916.00
2022-10-11T09:17:33.796Z,96907.22
2022-10-11T09:20:00.143Z,96904.94
2022-10-11T09:22:30.410Z,96898.59
2022-10-11T09:24:57.165Z,96906.28
2022-10-11T09:27:38.118Z,96902.91
2022-10-11T09:30:09.862Z,96898.69
2022-10-11T09:32:36.195Z,96904.16
2022-10-11T09:35:02.532Z,96896.22
2022-10-11T09:37:28.878Z,96895.97
2022-10-11T09:39:55.213Z,96903.63
2022-10-11T09:42:21.556Z,96903.19
2022-10-11T09:44:47.893Z,96897.84
2022-10-11T09:47:14.234Z,96887.78
2022-10-11T09:49:40.564Z,96895.75
2022-10-11T09:52:06.901Z,96899.00
2022-10-11T09:54:33.249Z,96891.22
2022-10-11T09:56:59.578Z,96890.19
2022-10-11T09:59:25.903Z,96893.56
2022-10-11T10:01:52.260Z,96895.22
2022-10-11T10:04:18.604Z,96899.00
2022-10-11T10:06:44.943Z,96888.13
2022-10-11T10:09:11.312Z,96883.88
2022-10-11T10:11:37.653Z,96881.50
2022-10-11T10:14:03.977Z,96887.81
2022-10-11T10:16:30.317Z,96880.97
2022-10-11T10:18:56.659Z,96890.81
2022-10-11T10:21:22.997Z,96879.38
2022-10-11T10:23:49.326Z,96886.56
2022-10-11T10:26:15.659Z,96886.84
2022-10-11T10:28:42.073Z,96882.56
2022-10-11T10:31:08.496Z,96878.34
2022-10-11T10:33:34.811Z,96881.50
2022-10-11T10:36:01.139Z,96890.50
2022-10-11T10:38:27.482Z,96878.06
2022-10-11T10:40:53.814Z,96885.75
2022-10-11T10:43:20.157Z,96889.22
2022-10-11T10:45:46.485Z,96881.78
2022-10-11T10:48:12.824Z,96884.69
2022-10-11T10:50:39.170Z,96883.09
2022-10-11T10:53:05.496Z,96886.00
2022-10-11T10:55:31.820Z,96879.34
2022-10-11T10:57:58.156Z,96882.03
2022-10-11T11:00:24.481Z,96874.34
2022-10-11T11:02:50.868Z,96875.63
2022-10-11T11:05:17.232Z,96881.44
2022-10-11T11:07:43.571Z,96883.25
2022-10-11T11:10:09.918Z,96878.75
2022-10-11T11:12:36.261Z,96881.69
2022-10-11T11:15:02.582Z,96883.09
2022-10-11T11:17:28.917Z,96873.94
2022-10-11T11:19:55.245Z,96875.53
2022-10-11T11:22:21.580Z,96867.56
2022-10-11T11:24:47.895Z,96873.88
2022-10-11T11:27:14.228Z,96866.13
2022-10-11T11:29:40.556Z,96860.53
2022-10-11T11:32:06.884Z,96858.16
2022-10-11T11:34:33.394Z,96860.97
2022-10-11T11:36:59.746Z,96856.72
2022-10-11T11:39:27.130Z,96860.63
2022-10-11T11:41:53.452Z,96853.41
2022-10-11T11:44:23.783Z,96849.63
2022-10-11T11:46:52.838Z,96854.69
2022-10-11T11:49:19.163Z,96850.88
2022-10-11T11:51:45.492Z,96856.63
2022-10-11T11:54:11.816Z,96851.94
2022-10-11T11:56:38.149Z,96850.75
2022-10-11T11:59:04.492Z,96843.44
2022-10-11T12:01:31.729Z,96837.63
2022-10-11T12:03:58.152Z,96838.88
2022-10-11T12:06:24.489Z,96836.31
2022-10-11T12:08:50.908Z,96836.50
2022-10-11T12:11:17.323Z,96836.09
2022-10-11T12:13:43.654Z,96829.03
2022-10-11T12:16:10.006Z,96825.97
2022-10-11T12:18:39.344Z,96827.81
2022-10-11T12:21:09.254Z,96826.03
2022-10-11T12:23:35.829Z,96828.69
2022-10-11T12:26:02.164Z,96827.94
2022-10-11T12:28:28.520Z,96820.81
2022-10-11T12:30:54.871Z,96813.66
2022-10-11T12:33:21.212Z,96813.41
2022-10-11T12:35:47.556Z,96813.91
2022-10-11T12:38:13.884Z,96809.56
2022-10-11T12:40:40.225Z,96803.53
2022-10-11T12:43:06.570Z,96805.03
2022-10-11T12:45:32.901Z,96812.81
2022-10-11T12:47:59.250Z,96810.34
2022-10-11T12:50:25.597Z,96802.66
2022-10-11T12:52:51.920Z,96811.94
2022-10-11T12:55:18.255Z,96804.34
2022-10-11T12:57:46.487Z,96794.38
2022-10-11T13:00:13.016Z,96789.72
2022-10-11T13:02:39.360Z,96799.78
2022-10-11T13:05:05.701Z,96792.78
2022-10-11T13:07:32.046Z,96798.22
2022-10-11T13:09:58.386Z,96800.38
2022-10-11T13:12:24.722Z,96793.69
2022-10-11T13:14:51.068Z,96790.91
2022-10-11T13:17:17.413Z,96786.03
2022-10-11T13:19:43.800Z,96780.19
2022-10-11T13:22:10.201Z,96780.97
2022-10-11T13:24:36.547Z,96775.44
2022-10-11T13:27:02.883Z,96775.50
2022-10-11T13:29:29.217Z,96779.97
2022-10-11T13:31:55.555Z,96776.91
2022-10-11T13:34:23.460Z,96771.81
2022-10-11T13:36:49.981Z,96778.03
2022-10-11T13:39:16.316Z,96767.56
2022-10-11T13:41:42.646Z,96767.78
2022-10-11T13:44:08.977Z,96769.59
2022-10-11T13:46:35.317Z,96754.41
2022-10-11T13:49:01.662Z,96768.16
2022-10-11T13:51:27.990Z,96762.97
2022-10-11T13:53:54.313Z,96774.84
2022-10-11T13:56:20.648Z,96761.38
2022-10-11T13:58:46.980Z,96751.94
2022-10-11T14:01:13.337Z,96758.84
2022-10-11T14:03:39.678Z,96751.00
2022-10-11T14:06:06.335Z,96759.59
2022-10-11T14:08:32.853Z,96754.81
2022-10-11T14:11:03.772Z,96758.25
2022-10-11T14:13:32.623Z,96750.97
2022-10-11T14:15:58.953Z,96753.50
2022-10-11T14:18:25.300Z,96753.38
2022-10-11T14:20:51.630Z,96762.31
2022-10-11T14:23:17.953Z,96755.13
2022-10-11T14:25:44.315Z,96755.41
2022-10-11T14:28:10.718Z,96748.44
2022-10-11T14:30:37.085Z,96745.53
2022-10-11T14:33:03.420Z,96752.50
2022-10-11T14:35:29.749Z,96750.66
2022-10-11T14:37:56.160Z,96751.16
2022-10-11T14:40:22.506Z,96750.47
2022-10-11T14:42:49.091Z,96745.25
2022-10-11T14:45:15.498Z,96739.75
2022-10-11T14:47:43.154Z,96738.34
2022-10-11T14:50:09.700Z,96745.84
2022-10-11T14:52:36.042Z,96737.47
2022-10-11T14:55:02.388Z,96738.34
2022-10-11T14:57:28.724Z,96744.97
2022-10-11T14:59:55.098Z,96743.69
2022-10-11T15:02:21.453Z,96745.78
2022-10-11T15:04:47.795Z,96746.69
2022-10-11T15:07:14.129Z,96749.84
2022-10-11T15:09:40.466Z,96742.25
2022-10-11T15:12:06.801Z,96746.34
2022-10-11T15:14:33.127Z,96739.81
2022-10-11T15:16:59.453Z,96740.84
2022-10-11T15:19:25.800Z,96746.00
2022-10-11T15:21:52.130Z,96734.19
2022-10-11T15:24:18.463Z,96739.09
2022-10-11T15:26:44.797Z,96736.63
2022-10-11T15:29:11.120Z,96734.47
2022-10-11T15:31:37.452Z,96743.09
2022-10-11T15:34:03.784Z,96732.06
2022-10-11T15:36:30.114Z,96739.16
2022-10-11T15:38:56.454Z,96737.66
2022-10-11T15:41:22.786Z,96737.81
2022-10-11T15:43:49.112Z,96732.28
2022-10-11T15:46:15.466Z,96738.28
2022-10-11T15:48:41.827Z,96737.38
2022-10-11T15:51:08.169Z,96736.19
2022-10-11T15:53:34.502Z,96736.06
2022-10-11T15:56:00.838Z,96742.97
2022-10-11T15:58:27.173Z,96743.97
2022-10-11T16:00:53.510Z,96742.31
2022-10-11T16:03:19.842Z,96745.50
2022-10-11T16:05:46.180Z,96751.44
2022-10-11T16:08:12.508Z,96748.22
2022-10-11T16:10:38.843Z,96746.34
2022-10-11T16:13:05.176Z,96744.78
2022-10-11T16:15:31.517Z,96754.03
2022-10-11T16:17:57.845Z,96768.56
2022-10-11T16:20:24.170Z,96771.38
2022-10-11T16:22:50.486Z,96783.09
2022-10-11T16:25:16.799Z,96780.56
2022-10-11T16:27:43.129Z,96777.03
2022-10-11T16:30:09.472Z,96779.34
2022-10-11T16:32:35.811Z,96785.31
2022-10-11T16:35:02.149Z,96786.28
2022-10-11T16:37:28.476Z,96787.06
2022-10-11T16:39:54.809Z,96788.59
2022-10-11T16:42:21.140Z,96787.91
2022-10-11T16:44:47.471Z,96789.59
2022-10-11T16:47:13.801Z,96787.25
2022-10-11T16:49:40.130Z,96787.00
2022-10-11T16:52:06.453Z,96796.19
2022-10-11T16:54:32.802Z,96783.03
2022-10-11T16:56:59.145Z,96783.13
2022-10-11T16:59:25.487Z,96781.69
2022-10-11T17:01:51.817Z,96769.00
2022-10-11T17:04:18.314Z,96762.59
2022-10-11T17:06:44.653Z,96756.63
2022-10-11T17:09:10.994Z,96755.88
2022-10-11T17:11:37.325Z,96757.47
2022-10-11T17:14:03.681Z,96760.63
2022-10-11T17:16:30.018Z,96781.00
2022-10-11T17:18:56.356Z,96775.31
2022-10-11T17:21:22.709Z,96781.31
2022-10-11T17:23:49.047Z,96779.47
2022-10-11T17:26:15.474Z,96782.03
2022-10-11T17:28:42.029Z,96786.78
2022-10-11T17:31:08.974Z,96785.66
2022-10-11T17:33:35.701Z,96791.22
2022-10-11T17:36:02.023Z,96790.03
2022-10-11T17:38:28.351Z,96795.06
2022-10-11T17:40:54.685Z,96804.41
2022-10-11T17:43:21.030Z,96798.75
2022-10-11T17:45:47.367Z,96790.75
2022-10-11T17:48:13.716Z,96794.50
2022-10-11T17:50:40.054Z,96802.75
2022-10-11T17:53:06.414Z,96809.47
2022-10-11T17:55:32.748Z,96804.16
2022-10-11T17:57:59.085Z,96811.03
2022-10-11T18:00:25.421Z,96808.91
2022-10-11T18:02:51.756Z,96812.09
2022-10-11T18:05:18.102Z,96799.16
2022-10-11T18:07:44.432Z,96811.31
2022-10-11T18:10:10.782Z,96801.44
2022-10-11T18:12:37.122Z,96803.06
2022-10-11T18:15:03.466Z,96801.06
2022-10-11T18:17:29.820Z,96798.94
2022-10-11T18:19:56.156Z,96797.28
2022-10-11T18:22:22.481Z,96789.41
2022-10-11T18:24:48.817Z,96802.78
2022-10-11T18:27:15.151Z,96792.16
2022-10-11T18:29:41.476Z,96795.22
2022-10-11T18:32:07.815Z,96800.44
2022-10-11T18:34:34.179Z,96801.44
2022-10-11T18:37:00.543Z,96793.75
2022-10-11T18:39:27.036Z,96796.72
2022-10-11T18:41:53.374Z,96797.72
2022-10-11T18:44:19.712Z,96797.19
2022-10-11T18:46:46.032Z,96793.44
2022-10-11T18:49:12.373Z,96793.47
2022-10-11T18:51:38.712Z,96790.44
2022-10-11T18:54:05.057Z,96792.25
2022-10-11T18:56:31.379Z,96800.16
2022-10-11T18:58:57.745Z,96794.41
2022-10-11T19:01:24.163Z,96791.38
2022-10-11T19:03:50.599Z,96788.50
2022-10-11T19:06:16.941Z,96783.16
2022-10-11T19:08:43.315Z,96786.31
2022-10-11T19:11:09.654Z,96784.25
2022-10-11T19:13:36.000Z,96778.44
2022-10-11T19:16:02.390Z,96783.72
2022-10-11T19:18:28.769Z,96799.41
2022-10-11T19:20:55.115Z,96791.22
2022-10-11T19:23:21.470Z,96790.47
2022-10-11T19:25:47.813Z,96799.50
2022-10-11T19:28:15.825Z,96796.63
2022-10-11T19:30:42.263Z,96806.09
2022-10-11T19:33:08.605Z,96798.16
2022-10-11T19:35:34.926Z,96807.16
2022-10-11T19:38:01.280Z,96810.97
2022-10-11T19:40:29.153Z,96806.91
2022-10-11T19:42:57.988Z,96807.69
2022-10-11T19:45:24.336Z,96813.03
2022-10-11T19:47:50.670Z,96812.50
2022-10-11T19:50:17.021Z,96811.44
2022-10-11T19:52:45.018Z,96822.00
2022-10-11T19:55:11.478Z,96815.59
2022-10-11T19:57:37.809Z,96820.44
2022-10-11T20:00:04.158Z,96817.69
2022-10-11T20:02:30.800Z,96815.63
2022-10-11T20:04:57.361Z,96825.47
2022-10-11T20:07:23.714Z,96822.78
2022-10-11T20:09:50.065Z,96825.66
2022-10-11T20:12:16.396Z,96830.50
2022-10-11T20:14:42.861Z,96837.91
2022-10-11T20:17:09.223Z,96834.72
2022-10-11T20:19:35.556Z,96842.63
2022-10-11T20:22:01.898Z,96844.72
2022-10-11T20:24:28.224Z,96839.50
2022-10-11T20:26:54.641Z,96840.13
2022-10-11T20:29:20.983Z,96842.75
2022-10-11T20:31:47.316Z,96841.19
2022-10-11T20:34:13.645Z,96845.69
2022-10-11T20:36:39.986Z,96847.03
2022-10-11T20:39:06.324Z,96853.06
2022-10-11T20:41:32.670Z,96852.34
2022-10-11T20:43:59.007Z,96848.78
2022-10-11T20:46:25.347Z,96844.75
2022-10-11T20:48:51.675Z,96850.16
2022-10-11T20:51:18.006Z,96848.91
2022-10-11T20:53:44.326Z,96844.22
2022-10-11T20:56:10.659Z,96845.22
2022-10-11T20:58:36.981Z,96835.72
2022-10-11T21:01:03.347Z,96843.09
2022-10-11T21:03:29.701Z,96853.06
2022-10-11T21:05:56.040Z,96850.16
2022-10-11T21:08:22.416Z,96851.53
2022-10-11T21:10:48.784Z,96854.28
2022-10-11T21:13:15.113Z,96854.72
2022-10-11T21:15:41.442Z,96860.56
2022-10-11T21:18:07.777Z,96852.03
2022-10-11T21:20:34.113Z,96859.97
2022-10-11T21:23:00.450Z,96859.00
2022-10-11T21:25:26.786Z,96858.69
2022-10-11T21:27:53.130Z,96850.34
2022-10-11T21:30:19.451Z,96858.53
2022-10-11T21:32:45.780Z,96859.47
2022-10-11T21:35:12.103Z,96860.50
2022-10-11T21:37:38.444Z,96856.34
2022-10-11T21:40:04.774Z,96858.53
2022-10-11T21:42:31.100Z,96858.94
2022-10-11T21:44:57.560Z,96854.97
2022-10-11T21:47:23.881Z,96861.00
2022-10-11T21:49:50.217Z,96853.63
2022-10-11T21:52:16.566Z,96849.97
2022-10-11T21:54:42.897Z,96847.09
2022-10-11T21:57:09.241Z,96852.41
2022-10-11T21:59:35.681Z,96849.31
2022-10-11T22:02:02.316Z,96855.25
2022-10-11T22:04:28.744Z,96843.63
2022-10-11T22:06:55.084Z,96856.19
2022-10-11T22:09:21.423Z,96848.78
2022-10-11T22:11:47.741Z,96856.88
2022-10-11T22:14:14.077Z,96848.94
2022-10-11T22:16:40.400Z,96847.44
2022-10-11T22:19:06.740Z,96851.69
2022-10-11T22:21:33.086Z,96849.81
2022-10-11T22:23:59.412Z,96853.56
2022-10-11T22:26:25.732Z,96851.69
2022-10-11T22:28:52.121Z,96852.13
2022-10-11T22:31:18.548Z,96855.94
2022-10-11T22:36:11.122Z,96848.28
2022-10-11T22:38:37.481Z,96850.91
2022-10-11T22:41:03.817Z,96852.19
2022-10-11T22:43:30.155Z,96849.53
2022-10-11T22:45:56.493Z,96849.28
2022-10-11T22:48:22.837Z,96854.91
2022-10-11T22:50:49.177Z,96848.91
2022-10-11T22:53:15.528Z,96849.53
2022-10-11T22:55:41.871Z,96853.22
2022-10-11T22:58:08.203Z,96853.31
2022-10-11T23:00:34.546Z,96868.13
2022-10-11T23:03:00.880Z,96866.00
2022-10-11T23:05:27.217Z,96867.06
2022-10-11T23:07:53.559Z,96860.75
2022-10-11T23:10:20.497Z,96865.53
2022-10-11T23:12:46.847Z,96868.16
2022-10-11T23:15:13.201Z,96870.63
2022-10-11T23:17:39.662Z,96869.31
2022-10-11T23:20:06.157Z,96870.91
2022-10-11T23:22:32.506Z,96867.97
2022-10-11T23:24:58.849Z,96870.63
2022-10-11T23:27:25.192Z,96871.44
2022-10-11T23:29:51.562Z,96872.22
2022-10-11T23:32:17.901Z,96872.47
2022-10-11T23:34:44.242Z,96867.97
2022-10-11T23:37:10.577Z,96867.63
2022-10-11T23:39:36.920Z,96873.69
2022-10-11T23:42:03.266Z,96867.31
2022-10-11T23:44:29.604Z,96878.63
2022-10-11T23:46:55.926Z,96868.63
2022-10-11T23:49:22.259Z,96865.25
2022-10-11T23:51:48.605Z,96873.75
2022-10-11T23:54:14.992Z,96878.63
2022-10-11T23:56:41.329Z,96870.94
2022-10-11T23:59:07.657Z,96876.47
